createdAt,value
2017-09-20T00:01:55.950Z,45.33
2017-09-20T00:04:24.204Z,44.20
2017-09-20T00:06:51.671Z,42.83
2017-09-20T00:09:19.138Z,38.73
2017-09-20T00:11:47.387Z,39.90
2017-09-20T00:14:14.859Z,40.10
2017-09-20T00:16:42.322Z,40.97
2017-09-20T00:19:10.579Z,40.57
2017-09-20T00:21:38.820Z,39.80
2017-09-20T00:24:06.292Z,36.83
2017-09-20T00:26:33.767Z,40.30
2017-09-20T00:29:01.238Z,42.03
2017-09-20T00:31:29.475Z,42.77
2017-09-20T00:33:56.963Z,43.97
2017-09-20T00:36:24.428Z,45.97
2017-09-20T00:38:52.687Z,43.93
2017-09-20T00:41:20.142Z,44.43
2017-09-20T00:43:48.376Z,43.50
2017-09-20T00:46:15.858Z,43.77
2017-09-20T00:48:43.343Z,45.13
2017-09-20T00:51:10.810Z,45.67
2017-09-20T00:53:39.054Z,45.53
2017-09-20T00:56:06.555Z,48.67
2017-09-20T00:58:34.040Z,49.03
2017-09-20T01:01:01.519Z,52.07
2017-09-20T01:03:28.987Z,52.63
2017-09-20T01:05:56.471Z,52.20
2017-09-20T01:08:24.731Z,51.23
2017-09-20T01:10:52.215Z,48.47
2017-09-20T01:13:19.687Z,47.90
2017-09-20T01:15:47.155Z,48.87
2017-09-20T01:18:14.634Z,49.27
2017-09-20T01:20:53.967Z,48.50
2017-09-20T01:23:33.171Z,48.20
2017-09-20T01:26:01.067Z,49.37
2017-09-20T01:28:28.537Z,50.13
2017-09-20T01:30:56.778Z,50.63
2017-09-20T01:33:24.258Z,50.20
2017-09-20T01:35:51.727Z,48.07
2017-09-20T01:38:19.216Z,48.47
2017-09-20T01:40:47.466Z,47.80
2017-09-20T01:43:14.940Z,46.50
2017-09-20T01:45:43.200Z,46.00
2017-09-20T01:48:10.673Z,47.50
2017-09-20T01:50:38.934Z,46.27
2017-09-20T01:53:07.168Z,46.33
2017-09-20T01:55:34.665Z,44.33
2017-09-20T01:58:02.141Z,42.77
2017-09-20T02:00:29.653Z,40.77
2017-09-20T02:02:57.112Z,41.87
2017-09-20T02:05:24.595Z,41.47
2017-09-20T02:07:52.839Z,41.17
2017-09-20T02:10:20.308Z,40.30
2017-09-20T02:12:47.808Z,45.07
2017-09-20T02:15:16.032Z,43.20
2017-09-20T02:17:43.500Z,41.93
2017-09-20T02:20:10.995Z,42.37
2017-09-20T02:22:38.471Z,43.20
2017-09-20T02:25:05.960Z,43.50
2017-09-20T02:27:33.419Z,44.97
2017-09-20T02:30:00.916Z,40.80
2017-09-20T02:32:29.148Z,41.77
2017-09-20T02:34:58.148Z,40.17
2017-09-20T02:37:25.607Z,42.90
2017-09-20T02:39:53.095Z,43.07
2017-09-20T02:42:20.590Z,41.60
2017-09-20T02:44:48.055Z,40.77
2017-09-20T02:47:15.544Z,40.30
2017-09-20T02:49:43.776Z,42.70
2017-09-20T02:52:11.263Z,44.00
2017-09-20T02:54:40.236Z,47.07
2017-09-20T02:57:07.727Z,42.57
2017-09-20T02:59:35.976Z,45.33
2017-09-20T03:02:03.436Z,43.57
2017-09-20T03:04:30.915Z,49.93
2017-09-20T03:06:59.144Z,44.70
2017-09-20T03:09:26.632Z,48.00
2017-09-20T03:11:54.878Z,47.77
2017-09-20T03:14:22.382Z,48.47
2017-09-20T03:16:50.637Z,45.93
2017-09-20T03:19:19.645Z,46.80
2017-09-20T03:21:47.892Z,47.73
2017-09-20T03:24:15.369Z,47.73
2017-09-20T03:26:42.864Z,51.60
2017-09-20T03:29:10.341Z,48.80
2017-09-20T03:31:37.837Z,49.00
2017-09-20T03:34:05.321Z,46.60
2017-09-20T03:36:32.843Z,48.07
2017-09-20T03:39:00.331Z,44.70
2017-09-20T03:41:28.576Z,45.97
2017-09-20T03:43:56.109Z,45.63
2017-09-20T03:46:23.560Z,48.27
2017-09-20T03:48:51.037Z,44.80
2017-09-20T03:51:18.525Z,47.73
2017-09-20T03:53:46.768Z,46.17
2017-09-20T03:56:14.282Z,45.57
2017-09-20T03:58:41.748Z,46.90
2017-09-20T04:01:09.230Z,45.90
2017-09-20T04:03:36.740Z,46.00
2017-09-20T04:06:04.991Z,45.23
2017-09-20T04:08:32.467Z,47.67
2017-09-20T04:11:00.708Z,46.33
2017-09-20T04:13:28.191Z,46.40
2017-09-20T04:15:56.440Z,47.47
2017-09-20T04:18:23.919Z,47.93
2017-09-20T04:20:52.151Z,48.87
2017-09-20T04:23:19.645Z,49.47
2017-09-20T04:25:47.114Z,51.63
2017-09-20T04:28:15.347Z,51.10
2017-09-20T04:30:42.822Z,51.70
2017-09-20T04:33:11.796Z,51.67
2017-09-20T04:35:39.261Z,49.60
2017-09-20T04:38:06.743Z,50.70
2017-09-20T04:40:34.992Z,52.33
2017-09-20T04:43:02.472Z,52.00
2017-09-20T04:45:29.923Z,52.17
2017-09-20T04:47:57.408Z,56.60
2017-09-20T04:50:24.871Z,53.57
2017-09-20T04:52:52.355Z,55.40
2017-09-20T04:55:19.823Z,52.73
2017-09-20T04:57:47.295Z,56.20
2017-09-20T05:00:15.544Z,53.80
2017-09-20T05:02:43.004Z,52.67
2017-09-20T05:05:10.471Z,53.47
2017-09-20T05:07:37.979Z,54.27
2017-09-20T05:10:06.224Z,55.93
2017-09-20T05:12:33.708Z,52.60
2017-09-20T05:15:01.938Z,54.53
2017-09-20T05:17:29.430Z,55.00
2017-09-20T05:19:57.839Z,56.57
2017-09-20T05:22:25.338Z,56.70
2017-09-20T05:24:52.812Z,57.33
2017-09-20T05:27:21.058Z,56.30
2017-09-20T05:29:48.552Z,58.00
2017-09-20T05:32:16.789Z,56.73
2017-09-20T05:34:44.254Z,56.43
2017-09-20T05:37:11.747Z,59.43
2017-09-20T05:39:39.992Z,61.80
2017-09-20T05:42:07.467Z,57.90
2017-09-20T05:44:35.723Z,59.87
2017-09-20T05:47:04.711Z,59.10
2017-09-20T05:49:32.188Z,59.50
2017-09-20T05:52:00.448Z,57.30
2017-09-20T05:54:27.940Z,61.67
2017-09-20T05:56:56.179Z,61.17
2017-09-20T05:59:23.671Z,63.40
2017-09-20T06:01:51.139Z,59.47
2017-09-20T06:04:18.610Z,59.43
2017-09-20T06:06:46.112Z,59.17
2017-09-20T06:09:13.575Z,61.33
2017-09-20T06:11:41.064Z,60.60
2017-09-20T06:14:08.571Z,58.90
2017-09-20T06:16:37.559Z,59.60
2017-09-20T06:19:05.048Z,62.30
2017-09-20T06:21:33.287Z,63.10
2017-09-20T06:24:00.756Z,63.87
2017-09-20T06:26:29.012Z,65.00
2017-09-20T06:28:56.503Z,66.40
2017-09-20T06:31:24.739Z,67.03
2017-09-20T06:33:52.226Z,63.60
2017-09-20T06:36:19.715Z,64.40
2017-09-20T06:38:47.185Z,62.37
2017-09-20T06:41:14.662Z,60.93
2017-09-20T06:43:42.143Z,60.27
2017-09-20T06:46:09.611Z,58.50
2017-09-20T06:48:37.103Z,56.90
2017-09-20T06:51:04.599Z,57.17
2017-09-20T06:53:32.083Z,55.87
2017-09-20T06:55:59.572Z,56.80
2017-09-20T06:58:27.055Z,54.53
2017-09-20T07:00:54.529Z,54.90
2017-09-20T07:03:22.013Z,55.23
2017-09-20T07:05:49.498Z,54.63
2017-09-20T07:08:16.969Z,52.23
2017-09-20T07:10:44.457Z,53.33
2017-09-20T07:13:11.936Z,49.50
2017-09-20T07:15:39.416Z,47.90
2017-09-20T07:18:07.657Z,51.00
2017-09-20T07:20:35.124Z,49.10
2017-09-20T07:23:02.611Z,46.20
2017-09-20T07:25:30.070Z,46.50
2017-09-20T07:27:57.555Z,44.40
2017-09-20T07:30:25.015Z,41.17
2017-09-20T07:32:52.499Z,40.63
2017-09-20T07:35:19.982Z,45.90
2017-09-20T07:37:48.229Z,43.70
2017-09-20T07:40:15.728Z,40.67
2017-09-20T07:42:43.192Z,43.93
2017-09-20T07:45:10.693Z,43.27
2017-09-20T07:47:38.156Z,43.60
2017-09-20T07:50:05.644Z,43.10
2017-09-20T07:52:33.895Z,42.03
2017-09-20T07:55:01.365Z,40.87
2017-09-20T07:57:29.615Z,41.03
2017-09-20T07:59:57.107Z,40.13
2017-09-20T08:02:25.367Z,40.77
2017-09-20T08:04:52.831Z,35.43
2017-09-20T08:07:21.054Z,35.67
2017-09-20T08:09:48.538Z,34.80
2017-09-20T08:12:16.052Z,36.60
2017-09-20T08:14:43.540Z,35.60
2017-09-20T08:17:11.011Z,34.30
2017-09-20T08:19:38.504Z,33.47
2017-09-20T08:22:05.976Z,32.60
2017-09-20T08:24:33.454Z,32.80
2017-09-20T08:27:00.954Z,30.47
2017-09-20T08:29:28.423Z,28.53
2017-09-20T08:31:56.656Z,28.20
2017-09-20T08:34:24.136Z,28.70
2017-09-20T08:36:51.623Z,29.30
2017-09-20T08:39:19.102Z,28.80
2017-09-20T08:41:46.579Z,27.00
2017-09-20T08:44:14.060Z,27.87
2017-09-20T08:46:41.539Z,25.20
2017-09-20T08:49:09.792Z,27.43
2017-09-20T08:51:37.271Z,24.80
2017-09-20T08:54:05.512Z,26.20
2017-09-20T08:56:32.991Z,25.17
2017-09-20T08:59:01.235Z,23.90
2017-09-20T09:01:28.719Z,24.80
2017-09-20T09:03:56.199Z,25.83
2017-09-20T09:06:23.672Z,26.03
2017-09-20T09:08:51.135Z,26.20
2017-09-20T09:11:18.623Z,23.10
2017-09-20T09:13:46.107Z,24.70
2017-09-20T09:16:14.360Z,19.10
2017-09-20T09:18:41.830Z,19.83
2017-09-20T09:21:09.312Z,18.00
2017-09-20T09:23:36.779Z,17.80
2017-09-20T09:26:04.395Z,19.47
2017-09-20T09:28:31.880Z,15.77
2017-09-20T09:31:00.116Z,12.03
2017-09-20T09:33:27.595Z,13.27
2017-09-20T09:35:55.059Z,13.33
2017-09-20T09:38:23.308Z,12.53
2017-09-20T09:40:50.782Z,13.20
2017-09-20T09:43:19.023Z,14.93
2017-09-20T09:45:46.510Z,15.07
2017-09-20T09:48:14.008Z,15.50
2017-09-20T09:50:41.483Z,15.10
2017-09-20T09:53:08.956Z,15.27
2017-09-20T09:55:36.489Z,14.63
2017-09-20T09:58:03.967Z,12.60
2017-09-20T10:00:31.430Z,10.73
2017-09-20T10:02:58.910Z,10.83
2017-09-20T10:05:27.162Z,9.60
2017-09-20T10:07:54.626Z,10.13
2017-09-20T10:10:22.143Z,10.10
2017-09-20T10:12:49.613Z,10.20
2017-09-20T10:15:17.091Z,10.37
2017-09-20T10:17:44.560Z,11.20
2017-09-20T10:20:12.043Z,11.53
2017-09-20T10:22:40.278Z,11.57
2017-09-20T10:25:07.763Z,10.43
2017-09-20T10:27:35.233Z,7.97
2017-09-20T10:30:03.470Z,7.00
2017-09-20T10:32:30.938Z,7.10
2017-09-20T10:34:58.392Z,7.13
2017-09-20T10:37:25.862Z,7.20
2017-09-20T10:39:54.119Z,6.73
2017-09-20T10:42:21.587Z,6.10
2017-09-20T10:44:49.061Z,6.50
2017-09-20T10:47:17.293Z,6.30
2017-09-20T10:49:44.751Z,5.87
2017-09-20T10:52:12.236Z,6.73
2017-09-20T10:54:40.472Z,7.00
2017-09-20T10:57:07.944Z,9.30
2017-09-20T10:59:35.406Z,7.70
2017-09-20T11:02:02.886Z,8.30
2017-09-20T11:04:31.119Z,8.90
2017-09-20T11:06:58.586Z,9.83
2017-09-20T11:09:26.068Z,9.90
2017-09-20T11:11:53.567Z,9.40
2017-09-20T11:14:21.034Z,9.37
2017-09-20T11:16:48.519Z,8.80
2017-09-20T11:19:16.007Z,9.20
2017-09-20T11:21:44.231Z,9.13
2017-09-20T11:24:11.707Z,7.50
2017-09-20T11:26:39.191Z,6.27
2017-09-20T11:29:07.414Z,5.70
2017-09-20T11:31:34.891Z,5.60
2017-09-20T11:34:02.360Z,6.13
2017-09-20T11:36:30.605Z,5.53
2017-09-20T11:38:58.074Z,4.67
2017-09-20T11:41:25.538Z,5.00
2017-09-20T11:43:53.762Z,5.00
2017-09-20T11:46:21.235Z,4.80
2017-09-20T11:48:48.703Z,5.10
2017-09-20T11:51:16.252Z,5.90
2017-09-20T11:53:43.716Z,4.80
2017-09-20T11:56:11.256Z,4.77
2017-09-20T11:58:38.744Z,5.00
2017-09-20T12:01:06.203Z,4.43
2017-09-20T12:03:33.658Z,5.13
2017-09-20T12:06:01.151Z,5.47
2017-09-20T12:08:29.396Z,5.10
2017-09-20T12:10:56.863Z,5.60
2017-09-20T12:13:24.324Z,4.10
2017-09-20T12:15:52.576Z,6.20
2017-09-20T12:18:20.049Z,5.33
2017-09-20T12:20:47.531Z,4.80
2017-09-20T12:23:15.813Z,5.40
2017-09-20T12:25:44.059Z,5.67
2017-09-20T12:28:11.551Z,5.80
2017-09-20T12:30:39.034Z,6.70
2017-09-20T12:33:06.509Z,7.20
2017-09-20T12:35:33.995Z,7.43
2017-09-20T12:38:01.549Z,6.90
2017-09-20T12:40:29.801Z,5.67
2017-09-20T12:42:57.261Z,5.47
2017-09-20T12:45:24.771Z,5.30
2017-09-20T12:47:52.230Z,5.30
2017-09-20T12:50:19.716Z,6.10
2017-09-20T12:52:47.188Z,6.50
2017-09-20T12:55:14.651Z,7.10
2017-09-20T12:57:42.115Z,6.93
2017-09-20T13:00:09.599Z,5.63
2017-09-20T13:02:37.830Z,5.53
2017-09-20T13:05:05.288Z,6.20
2017-09-20T13:07:32.797Z,5.70
2017-09-20T13:10:00.307Z,5.73
2017-09-20T13:12:27.783Z,5.57
2017-09-20T13:14:55.251Z,6.10
2017-09-20T13:17:23.498Z,6.30
2017-09-20T13:19:50.973Z,5.90
2017-09-20T13:22:18.426Z,6.27
2017-09-20T13:24:46.689Z,5.27
2017-09-20T13:27:14.967Z,5.20
2017-09-20T13:29:42.432Z,6.37
2017-09-20T13:32:09.892Z,5.97
2017-09-20T13:34:38.139Z,5.20
2017-09-20T13:37:05.665Z,6.40
2017-09-20T13:39:33.119Z,5.70
2017-09-20T13:42:00.614Z,5.70
2017-09-20T13:44:28.081Z,6.67
2017-09-20T13:46:55.564Z,5.80
2017-09-20T13:49:23.824Z,7.33
2017-09-20T13:51:52.109Z,6.10
2017-09-20T13:54:20.417Z,6.30
2017-09-20T13:56:47.902Z,5.77
2017-09-20T13:59:15.362Z,6.20
2017-09-20T14:01:43.809Z,6.13
2017-09-20T14:04:11.332Z,7.23
2017-09-20T14:06:40.001Z,7.00
2017-09-20T14:09:07.614Z,6.50
2017-09-20T14:11:35.202Z,5.70
2017-09-20T14:14:02.792Z,6.60
2017-09-20T14:16:31.108Z,6.00
2017-09-20T14:18:58.665Z,6.43
2017-09-20T14:21:26.355Z,6.27
2017-09-20T14:23:53.855Z,6.00
2017-09-20T14:26:22.249Z,5.90
2017-09-20T14:28:50.617Z,5.97
2017-09-20T14:31:18.227Z,6.00
2017-09-20T14:33:45.727Z,5.67
2017-09-20T14:36:14.171Z,4.90
2017-09-20T14:38:41.626Z,5.50
2017-09-20T14:41:09.139Z,5.20
2017-09-20T14:43:36.599Z,5.10
2017-09-20T14:46:04.092Z,5.10
2017-09-20T14:48:31.642Z,5.97
2017-09-20T14:50:59.135Z,5.97
2017-09-20T14:53:26.637Z,5.10
2017-09-20T14:55:54.106Z,5.30
2017-09-20T14:58:21.600Z,5.70
2017-09-20T15:00:49.112Z,5.23
2017-09-20T15:03:16.861Z,5.40
2017-09-20T15:05:44.391Z,4.70
2017-09-20T15:08:12.709Z,5.07
2017-09-20T15:10:40.239Z,5.60
2017-09-20T15:13:07.742Z,5.93
2017-09-20T15:15:35.432Z,6.40
2017-09-20T15:18:02.956Z,5.43
2017-09-20T15:20:30.522Z,5.90
2017-09-20T15:22:58.011Z,6.30
2017-09-20T15:25:25.478Z,5.80
2017-09-20T15:27:53.818Z,5.40
2017-09-20T15:30:21.320Z,5.13
2017-09-20T15:32:49.798Z,5.47
2017-09-20T15:35:18.034Z,5.60
2017-09-20T15:37:45.500Z,5.20
2017-09-20T15:40:12.984Z,5.10
2017-09-20T15:42:41.221Z,5.73
2017-09-20T15:45:08.695Z,5.70
2017-09-20T15:47:36.171Z,5.30
2017-09-20T15:50:04.423Z,6.20
2017-09-20T15:52:31.906Z,6.00
2017-09-20T15:55:00.132Z,5.47
2017-09-20T15:57:27.606Z,5.63
2017-09-20T15:59:55.074Z,5.37
2017-09-20T16:02:22.553Z,4.63
2017-09-20T16:04:50.796Z,4.37
2017-09-20T16:07:18.262Z,6.03
2017-09-20T16:09:45.739Z,5.60
2017-09-20T16:12:13.964Z,6.00
2017-09-20T16:14:41.450Z,5.10
2017-09-20T16:17:08.916Z,4.77
2017-09-20T16:19:37.154Z,5.13
2017-09-20T16:22:04.648Z,5.03
2017-09-20T16:24:32.110Z,4.77
2017-09-20T16:27:00.355Z,4.97
2017-09-20T16:29:27.823Z,4.47
2017-09-20T16:31:55.329Z,5.27
2017-09-20T16:34:22.795Z,5.40
2017-09-20T16:36:50.263Z,5.13
2017-09-20T16:39:17.747Z,5.00
2017-09-20T16:41:45.987Z,5.17
2017-09-20T16:44:13.465Z,4.63
2017-09-20T16:46:40.927Z,4.60
2017-09-20T16:49:08.408Z,5.57
2017-09-20T16:51:36.671Z,4.90
2017-09-20T16:54:04.145Z,5.00
2017-09-20T16:56:32.376Z,5.07
2017-09-20T16:58:59.860Z,4.80
2017-09-20T17:01:27.488Z,4.90
2017-09-20T17:03:55.773Z,4.00
2017-09-20T17:06:23.304Z,4.90
2017-09-20T17:08:50.765Z,5.40
2017-09-20T17:11:18.256Z,4.67
2017-09-20T17:13:45.728Z,4.90
2017-09-20T17:16:13.226Z,6.60
2017-09-20T17:18:40.712Z,5.70
2017-09-20T17:21:08.191Z,5.80
2017-09-20T17:23:35.660Z,5.50
2017-09-20T17:26:03.908Z,6.43
2017-09-20T17:28:31.399Z,5.13
2017-09-20T17:30:59.659Z,5.80
2017-09-20T17:33:27.138Z,5.33
2017-09-20T17:35:55.368Z,5.47
2017-09-20T17:38:23.270Z,6.10
2017-09-20T17:40:51.519Z,6.00
2017-09-20T17:43:18.996Z,6.83
2017-09-20T17:45:46.470Z,6.40
2017-09-20T17:48:14.711Z,6.27
2017-09-20T17:50:42.204Z,5.30
2017-09-20T17:53:09.692Z,5.50
2017-09-20T17:55:37.164Z,7.13
2017-09-20T17:58:04.670Z,6.37
2017-09-20T18:00:32.914Z,6.87
2017-09-20T18:03:00.408Z,7.20
2017-09-20T18:05:28.642Z,6.20
2017-09-20T18:07:56.108Z,8.83
2017-09-20T18:10:23.579Z,6.30
2017-09-20T18:12:51.810Z,9.30
2017-09-20T18:15:19.300Z,9.30
2017-09-20T18:17:46.760Z,12.43
2017-09-20T18:20:15.007Z,14.13
2017-09-20T18:22:42.508Z,13.70
2017-09-20T18:25:10.755Z,11.37
2017-09-20T18:27:38.268Z,11.40
2017-09-20T18:30:05.738Z,11.40
2017-09-20T18:32:33.230Z,11.07
2017-09-20T18:35:00.737Z,11.30
2017-09-20T18:37:28.228Z,10.23
2017-09-20T18:39:55.708Z,10.20
2017-09-20T18:42:23.185Z,10.33
2017-09-20T18:44:50.673Z,11.10
2017-09-20T18:47:18.135Z,11.40
2017-09-20T18:49:45.604Z,12.50
2017-09-20T18:52:13.088Z,13.10
2017-09-20T18:54:40.553Z,13.33
2017-09-20T18:57:08.887Z,12.03
2017-09-20T18:59:36.364Z,13.07
2017-09-20T19:02:03.846Z,11.60
2017-09-20T19:04:32.180Z,11.60
2017-09-20T19:06:59.654Z,10.27
2017-09-20T19:09:27.138Z,11.70
2017-09-20T19:11:55.787Z,10.67
2017-09-20T19:14:24.902Z,9.80
2017-09-20T19:16:52.445Z,9.80
2017-09-20T19:19:20.044Z,10.87
2017-09-20T19:21:47.539Z,10.40
2017-09-20T19:24:15.368Z,11.13
2017-09-20T19:26:43.143Z,10.70
2017-09-20T19:29:10.636Z,9.70
2017-09-20T19:31:38.126Z,9.50
2017-09-20T19:34:06.354Z,9.63
2017-09-20T19:36:33.968Z,11.20
2017-09-20T19:39:02.364Z,10.30
2017-09-20T19:41:29.836Z,9.93
2017-09-20T19:43:57.418Z,11.07
2017-09-20T19:46:25.017Z,10.20
2017-09-20T19:48:53.784Z,9.53
2017-09-20T19:51:22.097Z,11.00
2017-09-20T19:53:49.595Z,10.37
2017-09-20T19:56:17.080Z,10.40
2017-09-20T19:58:44.555Z,10.80
2017-09-20T20:01:12.811Z,10.27
2017-09-20T20:03:40.279Z,10.70
2017-09-20T20:06:08.528Z,10.50
2017-09-20T20:08:36.025Z,11.03
2017-09-20T20:11:04.257Z,10.80
2017-09-20T20:13:31.740Z,10.80
2017-09-20T20:15:59.979Z,10.80
2017-09-20T20:18:27.453Z,10.63
2017-09-20T20:20:54.939Z,10.97
2017-09-20T20:23:23.176Z,11.20
2017-09-20T20:25:50.655Z,10.70
2017-09-20T20:28:18.149Z,10.67
2017-09-20T20:30:45.648Z,10.90
2017-09-20T20:33:13.136Z,11.20
2017-09-20T20:35:41.404Z,11.50
2017-09-20T20:38:08.941Z,11.23
2017-09-20T20:40:36.514Z,11.10
2017-09-20T20:43:03.992Z,10.90
2017-09-20T20:45:32.300Z,11.07
2017-09-20T20:47:59.984Z,11.30
2017-09-20T20:50:27.553Z,12.33
2017-09-20T20:52:55.160Z,10.27
2017-09-20T20:55:22.686Z,12.53
2017-09-20T20:57:50.300Z,11.73
2017-09-20T21:00:17.887Z,11.27
2017-09-20T21:02:45.515Z,11.90
2017-09-20T21:05:13.078Z,10.97
2017-09-20T21:07:40.714Z,11.97
2017-09-20T21:10:08.302Z,12.63
2017-09-20T21:12:35.903Z,11.00
2017-09-20T21:15:04.156Z,10.20
2017-09-20T21:17:31.637Z,10.27
2017-09-20T21:20:00.743Z,9.87
2017-09-20T21:22:28.233Z,11.00
2017-09-20T21:24:55.709Z,10.57
2017-09-20T21:27:23.180Z,10.67
2017-09-20T21:29:50.663Z,11.40
2017-09-20T21:32:18.132Z,10.13
2017-09-20T21:34:46.452Z,11.03
2017-09-20T21:37:13.940Z,11.23
2017-09-20T21:39:41.400Z,10.80
2017-09-20T21:42:08.904Z,10.60
2017-09-20T21:44:36.367Z,11.03
2017-09-20T21:47:03.831Z,12.03
2017-09-20T21:49:31.323Z,11.30
2017-09-20T21:51:58.813Z,11.80
2017-09-20T21:54:27.051Z,11.37
2017-09-20T21:56:54.531Z,11.20
2017-09-20T21:59:22.766Z,11.80
2017-09-20T22:01:50.254Z,12.20
2017-09-20T22:04:17.718Z,12.00
2017-09-20T22:06:45.961Z,11.30
2017-09-20T22:09:13.438Z,12.07
2017-09-20T22:11:40.907Z,11.77
2017-09-20T22:14:09.160Z,11.77
2017-09-20T22:16:49.235Z,12.37
2017-09-20T22:19:29.439Z,10.93
2017-09-20T22:22:08.848Z,11.33
2017-09-20T22:24:48.293Z,11.10
2017-09-20T22:27:27.874Z,11.13
2017-09-20T22:29:55.353Z,11.93
2017-09-20T22:32:22.835Z,11.53
2017-09-20T22:34:50.296Z,11.33
2017-09-20T22:37:17.788Z,12.17
2017-09-20T22:39:45.249Z,11.30
2017-09-20T22:42:12.723Z,11.57
2017-09-20T22:44:40.203Z,11.00
2017-09-20T22:47:08.439Z,11.87
2017-09-20T22:49:35.923Z,12.37
2017-09-20T22:52:03.388Z,12.80
2017-09-20T22:54:31.639Z,12.33
2017-09-20T22:56:59.124Z,13.20
2017-09-20T22:59:27.367Z,13.30
2017-09-20T23:01:54.831Z,13.03
2017-09-20T23:04:22.311Z,13.10
2017-09-20T23:06:50.552Z,13.47
2017-09-20T23:09:18.048Z,13.37
2017-09-20T23:11:46.279Z,13.60
2017-09-20T23:14:13.743Z,13.73
2017-09-20T23:16:41.251Z,13.20
2017-09-20T23:19:08.736Z,14.23
2017-09-20T23:21:36.208Z,14.17
2017-09-20T23:24:03.671Z,14.10
2017-09-20T23:26:31.155Z,14.67
2017-09-20T23:28:59.378Z,14.70
2017-09-20T23:31:26.885Z,13.67
2017-09-20T23:33:55.119Z,14.80
2017-09-20T23:36:22.598Z,14.33
2017-09-20T23:38:50.084Z,14.33
2017-09-20T23:41:18.316Z,15.17
2017-09-20T23:43:45.803Z,14.87
2017-09-20T23:46:14.038Z,15.27
2017-09-20T23:48:41.515Z,16.80
2017-09-20T23:51:09.763Z,15.97
2017-09-20T23:53:37.226Z,16.87
2017-09-20T23:56:04.712Z,15.27
2017-09-20T23:58:32.175Z,14.70
